Time;durP1;ratioP1;P1;durP2;ratioP2;P2;SDS_P1;SDS_P2;PMS_P1;PMS_P2;Temp;Humidity;BMP_temperature;BMP_pressure;BME280_temperature;BME280_humidity;BME280_pressure;Samples;Min_cycle;Max_cycle;Signal;HPM_P1;HPM_P2
2023/01/31 07:47:48;;;;;;;7.53;4.23;;;0.20;99.90;;;;;;5136184;27;20271;-81
2023/01/31 07:52:09;;;;;;;9.87;3.97;;;0.30;99.90;;;;;;5114879;27;20392;-81
2023/01/31 07:56:11;;;;;;;11.13;4.77;;;0.30;99.90;;;;;;5136132;27;20623;-81
2023/01/31 07:59:53;;;;;;;6.17;4.27;;;1.40;99.90;;;;;;5135609;27;20753;-81
2023/01/31 08:03:54;;;;;;;7.10;4.60;;;0.40;99.90;;;;;;5138042;27;20271;-83
2023/01/31 08:08:09;;;;;;;5.63;3.10;;;0.40;99.90;;;;;;5137344;27;20281;-81
2023/01/31 08:11:57;;;;;;;12.30;4.57;;;0.40;99.90;;;;;;5136904;27;20287;-82
2023/01/31 08:14:24;;;;;;;12.07;5.27;;;0.50;99.90;;;;;;5135021;28;20503;-82
2023/01/31 08:16:50;;;;;;;9.47;4.67;;;0.60;99.90;;;;;;5136957;27;20162;-82
2023/01/31 08:19:16;;;;;;;3.70;2.57;;;0.90;99.90;;;;;;5135762;28;20902;-83
2023/01/31 08:21:42;;;;;;;10.90;5.00;;;0.80;99.90;;;;;;5135916;27;20466;-82
2023/01/31 08:24:08;;;;;;;11.60;4.23;;;0.90;99.90;;;;;;5136441;27;20237;-82
2023/01/31 08:26:34;;;;;;;8.77;3.63;;;1.00;99.90;;;;;;5134972;28;20203;-82
2023/01/31 08:29:00;;;;;;;6.80;3.93;;;0.90;99.90;;;;;;5134506;28;20922;-82
2023/01/31 08:31:27;;;;;;;6.33;4.60;;;0.70;99.90;;;;;;5138627;28;20205;-82
2023/01/31 08:33:54;;;;;;;10.03;4.03;;;0.80;99.90;;;;;;5140894;27;20171;-82
2023/01/31 08:36:25;;;;;;;10.43;3.93;;;1.00;99.90;;;;;;5136716;27;20411;-82
2023/01/31 08:38:51;;;;;;;8.07;4.20;;;1.00;99.90;;;;;;5133670;28;20400;-82
2023/01/31 08:41:19;;;;;;;13.03;4.43;;;0.90;99.90;;;;;;5134233;28;20481;-83
2023/01/31 08:43:45;;;;;;;8.13;4.30;;;1.00;99.90;;;;;;5134243;28;20183;-83
2023/01/31 08:46:11;;;;;;;10.50;5.40;;;0.90;99.90;;;;;;5135496;27;20510;-83
2023/01/31 08:48:38;;;;;;;15.97;7.57;;;1.10;99.90;;;;;;5136029;28;20497;-84
2023/01/31 08:51:05;;;;;;;13.77;5.77;;;1.70;99.90;;;;;;5136262;28;20626;-83
2023/01/31 08:53:32;;;;;;;18.27;7.87;;;1.90;99.90;;;;;;5136635;27;20435;-83
2023/01/31 08:56:02;;;;;;;5.87;4.10;;;1.80;99.90;;;;;;5135366;28;20850;-83
2023/01/31 08:58:30;;;;;;;6.70;4.33;;;1.60;99.90;;;;;;5133822;28;20420;-82
2023/01/31 09:01:07;;;;;;;5.90;3.43;;;1.30;99.90;;;;;;5136024;27;20432;-82
2023/01/31 09:03:33;;;;;;;6.97;4.57;;;1.10;99.90;;;;;;5134162;28;20436;-82
2023/01/31 09:06:05;;;;;;;7.00;4.90;;;1.00;99.90;;;;;;5132884;28;20417;-82
2023/01/31 09:08:32;;;;;;;6.50;5.10;;;0.90;99.90;;;;;;5134684;27;20188;-82
2023/01/31 09:11:01;;;;;;;8.67;5.30;;;0.80;99.90;;;;;;5134016;27;20554;-82
2023/01/31 09:13:28;;;;;;;9.70;5.17;;;0.80;99.90;;;;;;5132613;28;20436;-82
2023/01/31 09:16:03;;;;;;;8.27;4.10;;;1.00;99.90;;;;;;5133236;28;20770;-82
2023/01/31 09:18:29;;;;;;;5.57;4.33;;;1.10;99.90;;;;;;5133059;28;20397;-82
2023/01/31 09:20:55;;;;;;;13.67;6.03;;;1.20;99.90;;;;;;5133903;28;20417;-82
2023/01/31 09:23:21;;;;;;;11.90;5.57;;;1.30;99.90;;;;;;5118642;28;20490;-82
2023/01/31 09:25:54;;;;;;;10.80;5.37;;;1.40;99.90;;;;;;5119384;28;20179;-82
2023/01/31 09:28:20;;;;;;;9.97;4.90;;;1.50;99.90;;;;;;5119205;28;20836;-82
2023/01/31 09:30:46;;;;;;;7.40;5.23;;;1.50;99.90;;;;;;5119207;28;20464;-82
2023/01/31 09:33:12;;;;;;;6.47;4.93;;;1.40;99.90;;;;;;5119432;28;20434;-83
2023/01/31 09:35:38;;;;;;;13.10;7.80;;;1.30;99.90;;;;;;5121642;28;20694;-84
2023/01/31 09:38:03;;;;;;;18.40;9.97;;;1.30;99.90;;;;;;5121473;28;20182;-82
2023/01/31 09:40:32;;;;;;;14.03;8.17;;;1.20;99.90;;;;;;5120030;28;20219;-83
2023/01/31 09:43:01;;;;;;;15.80;8.17;;;1.20;99.90;;;;;;5120188;28;20199;-83
2023/01/31 09:45:38;;;;;;;19.10;10.60;;;1.30;99.90;;;;;;5121245;28;20454;-84
2023/01/31 09:48:05;;;;;;;7.97;5.00;;;1.80;99.90;;;;;;5120960;28;20405;-84
2023/01/31 09:50:54;;;;;;;6.47;4.73;;;2.20;99.90;;;;;;5123070;28;20987;-84
2023/01/31 09:53:23;;;;;;;10.67;6.30;;;3.20;99.90;;;;;;5120610;28;20544;-83
2023/01/31 09:56:03;;;;;;;13.50;7.73;;;3.90;99.90;;;;;;5120442;28;20409;-83
2023/01/31 09:58:49;;;;;;;9.57;5.57;;;4.70;99.90;;;;;;5120656;28;20402;-84
2023/01/31 10:01:33;;;;;;;11.13;6.17;;;4.50;99.90;;;;;;5120815;28;20160;-84
2023/01/31 10:04:32;;;;;;;7.93;4.00;;;4.40;99.90;;;;;;5122084;28;20167;-84
2023/01/31 10:07:17;;;;;;;4.50;3.17;;;4.90;99.90;;;;;;5123901;28;20183;-83
2023/01/31 10:09:52;;;;;;;8.20;5.03;;;4.60;99.90;;;;;;5125124;28;20212;-83
2023/01/31 10:12:24;;;;;;;9.63;6.00;;;4.70;99.90;;;;;;5124708;28;20278;-85
2023/01/31 10:14:54;;;;;;;8.10;5.63;;;5.30;99.90;;;;;;5121388;28;20196;-85
2023/01/31 10:17:30;;;;;;;8.03;5.57;;;6.00;99.90;;;;;;5121515;28;20160;-85
2023/01/31 10:20:04;;;;;;;6.93;4.53;;;5.90;99.90;;;;;;5121545;28;20185;-84
2023/01/31 10:23:10;;;;;;;6.20;4.73;;;5.80;99.90;;;;;;5121617;28;20227;-84
2023/01/31 10:25:54;;;;;;;8.17;5.57;;;5.30;99.90;;;;;;5121038;28;20175;-84
2023/01/31 10:28:30;;;;;;;9.57;5.63;;;4.80;99.90;;;;;;5120201;28;20613;-85
2023/01/31 10:31:15;;;;;;;10.67;5.60;;;4.10;99.90;;;;;;5119960;28;20191;-84
2023/01/31 10:34:11;;;;;;;8.37;5.43;;;3.60;99.90;;;;;;5117910;28;20199;-83
2023/01/31 10:36:44;;;;;;;8.33;5.40;;;3.50;99.90;;;;;;5119507;28;20222;-83
2023/01/31 10:39:32;;;;;;;6.23;4.50;;;3.50;99.90;;;;;;5118525;28;20164;-82
2023/01/31 10:42:16;;;;;;;7.20;5.07;;;3.50;99.90;;;;;;5117516;28;20670;-82
2023/01/31 10:44:54;;;;;;;4.57;3.80;;;4.00;99.90;;;;;;5118125;28;20202;-82
2023/01/31 10:47:26;;;;;;;6.97;4.10;;;4.10;99.90;;;;;;5118125;28;20254;-82
2023/01/31 10:49:52;;;;;;;7.87;5.03;;;4.00;99.90;;;;;;5117760;28;20249;-82
2023/01/31 10:52:33;;;;;;;9.30;5.37;;;3.80;99.90;;;;;;5119821;28;20201;-82
2023/01/31 10:55:12;;;;;;;5.73;3.73;;;4.00;99.90;;;;;;5119558;28;20213;-82
2023/01/31 10:57:37;;;;;;;4.77;3.40;;;3.70;99.90;;;;;;5119138;28;20404;-82
2023/01/31 11:00:04;;;;;;;8.47;5.07;;;3.70;99.90;;;;;;5119919;28;20530;-83
2023/01/31 11:02:30;;;;;;;8.27;5.97;;;3.80;99.90;;;;;;5120288;28;20224;-83
2023/01/31 11:04:58;;;;;;;8.43;5.57;;;3.90;99.90;;;;;;5119937;28;20220;-82
2023/01/31 11:07:28;;;;;;;9.27;5.87;;;3.80;99.90;;;;;;5120230;28;20188;-83
2023/01/31 11:09:55;;;;;;;8.37;6.00;;;3.60;99.90;;;;;;5121053;28;20271;-83
2023/01/31 11:12:40;;;;;;;10.70;5.57;;;3.50;99.90;;;;;;5122025;28;20203;-82
2023/01/31 11:15:17;;;;;;;8.20;5.67;;;3.40;99.90;;;;;;5120506;28;20502;-83
2023/01/31 11:17:45;;;;;;;6.00;4.70;;;3.20;99.90;;;;;;5119923;28;20239;-83
2023/01/31 11:20:27;;;;;;;4.23;3.70;;;3.10;99.90;;;;;;5119712;28;20179;-83
2023/01/31 11:22:55;;;;;;;4.63;3.97;;;2.90;99.90;;;;;;5118761;28;20202;-82
2023/01/31 11:25:22;;;;;;;6.33;5.37;;;2.70;99.90;;;;;;5121460;28;20181;-83
2023/01/31 11:27:51;;;;;;;10.40;5.83;;;2.60;99.90;;;;;;5120508;28;20179;-83
2023/01/31 11:30:39;;;;;;;11.10;7.27;;;2.60;99.90;;;;;;5119646;28;20198;-83
2023/01/31 11:33:05;;;;;;;11.80;8.10;;;2.70;99.90;;;;;;5120446;28;20523;-83
2023/01/31 11:35:33;;;;;;;11.63;7.83;;;2.80;99.90;;;;;;5120150;28;20176;-83
2023/01/31 11:38:21;;;;;;;16.20;10.30;;;2.80;99.90;;;;;;5119021;28;20535;-83
2023/01/31 11:40:46;;;;;;;14.20;9.30;;;2.70;99.90;;;;;;5119271;28;20183;-82
2023/01/31 11:43:18;;;;;;;9.47;5.67;;;2.70;99.90;;;;;;5130364;28;20436;-81
2023/01/31 11:45:45;;;;;;;7.17;4.40;;;2.60;99.90;;;;;;5130489;28;20644;-82
2023/01/31 11:48:12;;;;;;;6.03;5.20;;;2.60;99.90;;;;;;5130816;28;20191;-83
2023/01/31 11:50:44;;;;;;;9.13;5.50;;;2.70;99.90;;;;;;5125847;28;20541;-83
2023/01/31 11:53:23;;;;;;;8.80;6.07;;;2.70;99.90;;;;;;5118169;28;20584;-85
2023/01/31 11:55:53;;;;;;;7.70;5.97;;;2.70;99.90;;;;;;5118315;28;20753;-83
2023/01/31 11:58:30;;;;;;;6.80;5.67;;;2.80;99.90;;;;;;5117944;28;20546;-83
2023/01/31 12:01:01;;;;;;;8.77;5.43;;;2.90;99.90;;;;;;5119897;28;20504;-84
2023/01/31 12:03:28;;;;;;;7.60;5.63;;;3.10;99.90;;;;;;5119582;28;20195;-84
2023/01/31 12:06:21;;;;;;;7.40;6.03;;;3.00;99.90;;;;;;5119708;28;20409;-83
2023/01/31 12:08:53;;;;;;;7.73;5.63;;;2.90;99.90;;;;;;5116233;28;20417;-84
2023/01/31 12:11:18;;;;;;;5.87;4.73;;;2.90;99.90;;;;;;5118877;28;20518;-86
2023/01/31 12:13:49;;;;;;;10.80;7.37;;;2.70;99.90;;;;;;5119828;28;20433;-83
2023/01/31 12:16:19;;;;;;;13.00;7.47;;;2.50;99.90;;;;;;5119584;28;20175;-83
2023/01/31 12:18:54;;;;;;;20.03;10.90;;;2.50;99.90;;;;;;5118617;28;20406;-82
2023/01/31 12:21:49;;;;;;;15.30;8.47;;;2.40;99.90;;;;;;5117238;28;20620;-82
2023/01/31 12:24:37;;;;;;;8.40;6.27;;;2.50;99.90;;;;;;5118170;28;20405;-84
2023/01/31 12:27:27;;;;;;;9.07;6.97;;;2.50;99.90;;;;;;5117765;28;20462;-82
2023/01/31 12:30:07;;;;;;;9.77;6.83;;;2.60;99.90;;;;;;5118318;28;20390;-82
2023/01/31 12:32:39;;;;;;;12.60;9.20;;;2.70;99.90;;;;;;5116675;28;20461;-82
2023/01/31 12:35:30;;;;;;;10.43;7.27;;;3.00;99.90;;;;;;5116505;28;20533;-82
2023/01/31 12:38:23;;;;;;;11.50;7.87;;;3.20;99.90;;;;;;5117640;28;20227;-82
2023/01/31 12:41:00;;;;;;;8.83;5.90;;;3.30;99.90;;;;;;5115878;28;20579;-82
2023/01/31 12:43:37;;;;;;;9.90;6.63;;;3.30;99.90;;;;;;5115272;28;20195;-82
2023/01/31 12:46:24;;;;;;;6.33;5.17;;;3.40;99.90;;;;;;5115239;28;20182;-82
2023/01/31 12:48:53;;;;;;;10.33;5.67;;;4.20;99.90;;;;;;5116584;28;20172;-83
2023/01/31 12:51:36;;;;;;;9.83;6.73;;;4.50;99.90;;;;;;5116112;28;20195;-83
2023/01/31 12:54:31;;;;;;;8.00;6.20;;;5.20;99.90;;;;;;5117460;28;20184;-83
2023/01/31 12:57:08;;;;;;;20.77;12.37;;;6.10;99.90;;;;;;5118586;28;20620;-82
2023/01/31 13:00:12;;;;;;;23.03;15.00;;;7.20;99.90;;;;;;5119678;28;20206;-84
2023/01/31 13:03:17;;;;;;;13.27;10.27;;;7.40;99.90;;;;;;5120160;28;20711;-84
2023/01/31 13:06:18;;;;;;;6.70;5.23;;;7.70;99.90;;;;;;5120794;28;20642;-84
2023/01/31 13:08:53;;;;;;;7.73;5.30;;;8.00;99.90;;;;;;5121870;28;20202;-84
2023/01/31 13:11:23;;;;;;;6.63;4.67;;;6.80;99.90;;;;;;5122237;28;20211;-83
2023/01/31 13:13:56;;;;;;;6.53;4.87;;;5.40;99.90;;;;;;5121107;28;20187;-83
2023/01/31 13:16:29;;;;;;;6.57;4.87;;;5.40;99.90;;;;;;5120638;28;20182;-86
2023/01/31 13:19:02;;;;;;;6.00;4.50;;;5.90;99.90;;;;;;5122813;28;20205;-86
2023/01/31 13:21:41;;;;;;;5.57;4.27;;;6.20;99.90;;;;;;5121591;28;20172;-84
2023/01/31 13:24:11;;;;;;;6.67;4.97;;;5.90;99.90;;;;;;5122392;28;20163;-84
2023/01/31 13:26:44;;;;;;;7.23;4.90;;;6.10;99.90;;;;;;5129451;28;20293;-83
2023/01/31 13:29:19;;;;;;;6.30;4.83;;;5.80;99.90;;;;;;5128239;28;20577;-84
2023/01/31 13:32:00;;;;;;;5.73;3.80;;;5.00;99.90;;;;;;5132155;28;20214;-82
2023/01/31 13:34:39;;;;;;;8.30;4.67;;;4.40;99.90;;;;;;5122230;28;20262;-83
2023/01/31 13:37:10;;;;;;;5.53;4.37;;;4.30;99.90;;;;;;5119755;28;20229;-83
2023/01/31 13:39:39;;;;;;;6.60;4.40;;;4.20;99.90;;;;;;5121750;28;20183;-82
2023/01/31 13:42:05;;;;;;;7.30;5.87;;;3.90;99.90;;;;;;5119989;28;20794;-82
2023/01/31 13:44:31;;;;;;;5.13;4.07;;;3.70;99.90;;;;;;5118746;28;20211;-82
2023/01/31 13:47:02;;;;;;;4.60;3.60;;;3.60;99.90;;;;;;5121702;28;20170;-84
2023/01/31 13:49:45;;;;;;;5.20;4.40;;;3.40;99.90;;;;;;5122553;28;20331;-84
2023/01/31 13:52:23;;;;;;;4.80;4.30;;;3.20;99.90;;;;;;5119487;28;20752;-82
2023/01/31 13:54:54;;;;;;;6.07;4.63;;;3.20;99.90;;;;;;5118495;28;20588;-82
2023/01/31 13:57:46;;;;;;;6.63;4.87;;;3.20;99.90;;;;;;5118787;28;20170;-82
2023/01/31 14:00:31;;;;;;;10.47;6.10;;;3.20;99.90;;;;;;5119880;28;20180;-85
2023/01/31 14:03:07;;;;;;;12.83;7.20;;;3.20;99.90;;;;;;5119770;28;20235;-82
2023/01/31 14:05:42;;;;;;;14.57;8.87;;;3.20;99.90;;;;;;5117964;28;20182;-82
2023/01/31 14:08:26;;;;;;;12.47;5.90;;;3.10;99.90;;;;;;5120521;28;20213;-85
2023/01/31 14:10:56;;;;;;;29.67;14.10;;;3.10;99.90;;;;;;5119153;28;20213;-82
2023/01/31 14:13:26;;;;;;;11.77;7.20;;;3.00;99.90;;;;;;5119185;28;20188;-82
2023/01/31 14:15:54;;;;;;;14.20;9.90;;;3.00;99.90;;;;;;5117894;28;20188;-82
2023/01/31 14:18:43;;;;;;;10.73;8.23;;;3.00;99.90;;;;;;5119075;28;20195;-82
2023/01/31 14:21:27;;;;;;;7.07;5.90;;;2.90;99.90;;;;;;5119619;28;20176;-82
2023/01/31 14:23:54;;;;;;;6.50;4.87;;;2.90;99.90;;;;;;5119171;28;20173;-83
2023/01/31 14:26:41;;;;;;;7.57;5.67;;;2.80;99.90;;;;;;5120804;28;20172;-85
2023/01/31 14:29:08;;;;;;;6.30;4.50;;;2.70;99.90;;;;;;5118977;28;20184;-83
2023/01/31 14:31:34;;;;;;;6.33;4.67;;;2.70;99.90;;;;;;5118292;28;20200;-83
2023/01/31 14:34:01;;;;;;;6.77;4.97;;;2.70;99.90;;;;;;5120990;28;20185;-85
2023/01/31 14:36:47;;;;;;;9.03;5.53;;;2.70;99.90;;;;;;5120408;28;20210;-83
2023/01/31 14:39:37;;;;;;;6.03;5.10;;;2.80;99.90;;;;;;5119822;28;20175;-84
2023/01/31 14:42:24;;;;;;;6.17;5.20;;;2.70;99.90;;;;;;5120914;28;20245;-82
2023/01/31 14:45:19;;;;;;;6.27;5.13;;;2.70;99.90;;;;;;5120921;28;20176;-84
2023/01/31 14:48:06;;;;;;;5.03;4.13;;;2.70;99.90;;;;;;5119076;28;20241;-86
2023/01/31 14:50:45;;;;;;;6.53;4.63;;;2.70;99.90;;;;;;5119933;28;20195;-85
2023/01/31 14:53:32;;;;;;;8.97;4.93;;;2.70;99.90;;;;;;5119851;28;20218;-83
2023/01/31 14:56:32;;;;;;;7.80;5.00;;;2.70;99.90;;;;;;5118132;28;20255;-83
2023/01/31 14:58:58;;;;;;;7.43;4.60;;;2.70;99.90;;;;;;5121292;28;20209;-85
2023/01/31 15:01:33;;;;;;;6.83;5.30;;;2.70;99.90;;;;;;5120645;28;20540;-85
2023/01/31 15:03:59;;;;;;;8.63;6.30;;;2.70;99.90;;;;;;5120102;28;20541;-84
2023/01/31 15:06:39;;;;;;;7.57;5.57;;;2.60;99.90;;;;;;5120006;28;20181;-87
2023/01/31 15:09:20;;;;;;;6.20;5.30;;;2.60;99.90;;;;;;5123030;28;20183;-84
